Terminal Aerodrome Forecast
Issued by NWS

Home | Current Version | Previous Version | Text Only | Print | Product List | Glossary On
Versions: 1 2 3 4 5 6 7 8 9 10 11 12 13 14 15 16 17 18 19 20 21
787
FTUS44 KLIX 210541
TAFGPT
TAF
KGPT 210541Z 2106/2206 19005KT 1/4SM FG VV002
     FM210900 17010KT 1SM -SHRA BR OVC003
      TEMPO 2110/2113 24035G50KT 1/2SM +TSRA BKN005 OVC015CB
     FM211600 19009KT P6SM OVC010
     FM212100 20011KT P6SM BKN025
     FM220200 19009KT 5SM BR OVC009=

USA.gov is the U.S. government's official web portal to all federal, state and local government web resources and services.